createdAt,value
2019-02-24T00:00:38.961Z,10.00
2019-02-24T00:01:19.353Z,9.90
2019-02-24T00:01:55.036Z,9.83
2019-02-24T00:02:30.427Z,9.53
2019-02-24T00:03:05.841Z,9.53
2019-02-24T00:03:41.524Z,10.00
2019-02-24T00:04:17.173Z,9.07
2019-02-24T00:04:52.955Z,9.53
2019-02-24T00:05:28.450Z,10.63
2019-02-24T00:06:03.860Z,10.03
2019-02-24T00:06:39.296Z,10.40
2019-02-24T00:07:15.207Z,10.27
2019-02-24T00:07:51.112Z,9.90
2019-02-24T00:08:26.498Z,9.93
2019-02-24T00:09:02.486Z,9.67
2019-02-24T00:09:38.163Z,9.87
2019-02-24T00:10:13.586Z,10.10
2019-02-24T00:10:49.264Z,10.43
2019-02-24T00:11:24.941Z,9.97
2019-02-24T00:12:00.345Z,10.17
2019-02-24T00:12:35.720Z,9.97
2019-02-24T00:13:11.783Z,9.73
2019-02-24T00:13:47.184Z,9.70
2019-02-24T00:14:22.584Z,9.40
2019-02-24T00:14:58.249Z,10.63
2019-02-24T00:15:33.642Z,10.30
2019-02-24T00:16:09.089Z,9.90
2019-02-24T00:16:44.595Z,10.63
2019-02-24T00:17:20.228Z,9.80
2019-02-24T00:17:55.687Z,10.13
2019-02-24T00:18:31.084Z,10.57
2019-02-24T00:19:06.878Z,10.43
2019-02-24T00:19:42.277Z,10.83
2019-02-24T00:20:17.700Z,9.37
2019-02-24T00:20:53.349Z,10.27
2019-02-24T00:21:29.040Z,9.77
2019-02-24T00:22:04.737Z,9.40
2019-02-24T00:22:40.368Z,10.37
2019-02-24T00:23:15.750Z,10.27
2019-02-24T00:23:51.147Z,9.97
2019-02-24T00:24:26.800Z,9.97
2019-02-24T00:25:02.210Z,9.60
2019-02-24T00:25:37.892Z,9.40
2019-02-24T00:26:13.609Z,9.60
2019-02-24T00:26:49.065Z,10.17
2019-02-24T00:27:24.476Z,10.13
2019-02-24T00:28:06.958Z,10.03
2019-02-24T00:28:37.526Z,10.17
2019-02-24T00:29:13.210Z,10.73
2019-02-24T00:29:48.992Z,10.13
2019-02-24T00:30:24.394Z,9.53
2019-02-24T00:31:00.066Z,9.60
2019-02-24T00:31:35.724Z,9.53
2019-02-24T00:32:11.439Z,10.17
2019-02-24T00:32:47.101Z,10.03
2019-02-24T00:33:22.513Z,9.53
2019-02-24T00:33:58.150Z,9.80
2019-02-24T00:34:33.610Z,9.83
2019-02-24T00:35:09.001Z,9.53
2019-02-24T00:35:44.394Z,9.20
2019-02-24T00:36:20.032Z,9.80
2019-02-24T00:36:55.728Z,10.13
2019-02-24T00:37:31.134Z,9.77
2019-02-24T00:38:06.780Z,9.30
2019-02-24T00:38:42.450Z,10.40
2019-02-24T00:39:17.828Z,9.67
2019-02-24T00:39:53.228Z,10.07
2019-02-24T00:40:28.886Z,10.03
2019-02-24T00:41:04.297Z,10.13
2019-02-24T00:41:40.033Z,9.60
2019-02-24T00:42:15.450Z,9.93
2019-02-24T00:42:50.831Z,10.13
2019-02-24T00:43:26.223Z,10.20
2019-02-24T00:44:01.878Z,9.50
2019-02-24T00:44:37.294Z,9.83
2019-02-24T00:45:12.674Z,9.63
2019-02-24T00:45:48.056Z,9.97
2019-02-24T00:46:23.982Z,9.73
2019-02-24T00:46:59.698Z,10.20
2019-02-24T00:47:35.371Z,9.77
2019-02-24T00:48:10.749Z,8.97
2019-02-24T00:48:46.720Z,9.47
2019-02-24T00:49:22.133Z,8.80
2019-02-24T00:49:57.530Z,8.90
2019-02-24T00:50:33.015Z,10.47
2019-02-24T00:51:08.450Z,10.23
2019-02-24T00:51:43.933Z,9.20
2019-02-24T00:52:19.332Z,9.00
2019-02-24T00:52:55.546Z,9.10
2019-02-24T00:53:30.923Z,9.70
2019-02-24T00:54:06.336Z,9.90
2019-02-24T00:54:41.980Z,10.53
2019-02-24T00:55:17.396Z,9.97
2019-02-24T00:55:52.794Z,9.60
2019-02-24T00:56:28.430Z,9.50
2019-02-24T00:57:03.928Z,9.53
2019-02-24T00:57:39.328Z,9.13
2019-02-24T00:58:16.432Z,9.40
2019-02-24T00:58:52.200Z,10.20
2019-02-24T00:59:27.610Z,9.13
2019-02-24T01:00:03.292Z,9.73
2019-02-24T01:00:38.699Z,9.80
2019-02-24T01:01:14.651Z,9.40
2019-02-24T01:01:50.573Z,9.40
2019-02-24T01:02:26.532Z,9.17
2019-02-24T01:03:01.919Z,9.87
2019-02-24T01:03:37.582Z,9.77
2019-02-24T01:04:12.972Z,9.33
2019-02-24T01:04:48.693Z,9.67
2019-02-24T01:05:24.390Z,9.93
2019-02-24T01:06:00.089Z,9.37
2019-02-24T01:06:35.492Z,8.93
2019-02-24T01:07:11.231Z,9.13
2019-02-24T01:07:46.621Z,8.77
2019-02-24T01:08:22.026Z,9.13
2019-02-24T01:08:57.419Z,9.23
2019-02-24T01:09:33.066Z,9.40
2019-02-24T01:10:08.866Z,8.87
2019-02-24T01:10:44.252Z,8.90
2019-02-24T01:11:19.963Z,9.73
2019-02-24T01:11:55.382Z,8.77
2019-02-24T01:12:30.786Z,8.90
2019-02-24T01:13:06.210Z,9.30
2019-02-24T01:13:42.168Z,9.10
2019-02-24T01:14:17.836Z,9.03
2019-02-24T01:14:53.216Z,8.80
2019-02-24T01:15:29.170Z,8.50
2019-02-24T01:16:04.581Z,8.70
2019-02-24T01:16:40.243Z,8.90
2019-02-24T01:17:15.644Z,8.87
2019-02-24T01:17:51.308Z,8.90
2019-02-24T01:18:26.726Z,8.90
2019-02-24T01:19:02.113Z,9.93
2019-02-24T01:19:37.781Z,8.53
2019-02-24T01:20:13.439Z,9.17
2019-02-24T01:20:49.290Z,9.03
2019-02-24T01:21:24.918Z,9.03
2019-02-24T01:22:00.809Z,8.57
2019-02-24T01:22:36.225Z,8.97
2019-02-24T01:23:11.625Z,9.37
2019-02-24T01:23:47.007Z,9.00
2019-02-24T01:24:22.653Z,9.17
2019-02-24T01:24:58.320Z,8.97
2019-02-24T01:25:34.011Z,9.40
2019-02-24T01:26:09.417Z,8.83
2019-02-24T01:26:44.814Z,8.43
2019-02-24T01:27:20.234Z,9.03
2019-02-24T01:27:55.919Z,8.77
2019-02-24T01:28:31.568Z,8.43
2019-02-24T01:29:07.304Z,8.77
2019-02-24T01:29:42.683Z,7.87
2019-02-24T01:30:18.064Z,9.10
2019-02-24T01:30:53.452Z,8.70
2019-02-24T01:31:29.147Z,8.40
2019-02-24T01:32:04.549Z,8.17
2019-02-24T01:32:40.529Z,8.13
2019-02-24T01:33:15.998Z,8.73
2019-02-24T01:33:51.625Z,8.13
2019-02-24T01:34:27.016Z,9.00
2019-02-24T01:35:02.415Z,8.67
2019-02-24T01:35:37.849Z,8.50
2019-02-24T01:36:13.252Z,8.83
2019-02-24T01:36:48.647Z,8.13
2019-02-24T01:37:24.607Z,8.30
2019-02-24T01:38:00.288Z,8.23
2019-02-24T01:38:35.928Z,8.00
2019-02-24T01:39:11.564Z,8.27
2019-02-24T01:39:46.987Z,8.10
2019-02-24T01:40:22.645Z,7.80
2019-02-24T01:40:58.033Z,8.13
2019-02-24T01:41:33.685Z,8.03
2019-02-24T01:42:09.537Z,7.90
2019-02-24T01:42:45.488Z,8.37
2019-02-24T01:43:20.868Z,8.57
2019-02-24T01:43:56.604Z,8.03
2019-02-24T01:44:32.305Z,8.13
2019-02-24T01:45:07.980Z,8.00
2019-02-24T01:45:43.363Z,7.73
2019-02-24T01:46:18.845Z,7.73
2019-02-24T01:46:54.490Z,7.90
2019-02-24T01:47:30.161Z,7.30
2019-02-24T01:48:05.540Z,8.10
2019-02-24T01:48:41.015Z,8.23
2019-02-24T01:49:16.663Z,7.30
2019-02-24T01:49:52.028Z,8.07
2019-02-24T01:50:27.429Z,7.43
2019-02-24T01:51:03.131Z,7.10
2019-02-24T01:51:38.897Z,7.50
2019-02-24T01:52:14.520Z,7.90
2019-02-24T01:52:50.231Z,7.83
2019-02-24T01:53:25.886Z,8.23
2019-02-24T01:54:01.603Z,7.30
2019-02-24T01:54:37.070Z,7.57
2019-02-24T01:55:12.496Z,8.47
2019-02-24T01:55:47.883Z,7.77
2019-02-24T01:56:23.849Z,8.07
2019-02-24T01:56:59.251Z,8.10
2019-02-24T01:57:34.670Z,7.20
2019-02-24T01:58:10.069Z,7.47
2019-02-24T01:58:45.450Z,7.33
2019-02-24T01:59:20.816Z,7.00
2019-02-24T01:59:56.197Z,7.57
2019-02-24T02:00:31.578Z,6.70
2019-02-24T02:01:07.537Z,7.43
2019-02-24T02:01:42.929Z,7.50
2019-02-24T02:02:18.637Z,7.20
2019-02-24T02:02:54.044Z,7.37
2019-02-24T02:03:29.714Z,7.47
2019-02-24T02:04:05.119Z,7.43
2019-02-24T02:04:40.801Z,7.07
2019-02-24T02:05:16.491Z,7.40
2019-02-24T02:05:52.136Z,7.60
2019-02-24T02:06:27.804Z,7.93
2019-02-24T02:07:03.194Z,7.23
2019-02-24T02:07:38.866Z,7.07
2019-02-24T02:08:14.596Z,7.07
2019-02-24T02:08:49.997Z,7.90
2019-02-24T02:09:25.386Z,7.97
2019-02-24T02:10:00.884Z,7.77
2019-02-24T02:10:36.277Z,7.93
2019-02-24T02:11:11.740Z,7.17
2019-02-24T02:11:47.364Z,6.80
2019-02-24T02:12:23.273Z,7.23
2019-02-24T02:12:58.695Z,7.47
2019-02-24T02:13:34.089Z,6.70
2019-02-24T02:14:09.757Z,6.80
2019-02-24T02:14:45.429Z,7.10
2019-02-24T02:15:21.218Z,7.60
2019-02-24T02:15:57.028Z,7.83
2019-02-24T02:16:32.678Z,6.83
2019-02-24T02:17:08.324Z,8.00
2019-02-24T02:17:43.832Z,7.57
2019-02-24T02:18:19.563Z,8.03
2019-02-24T02:18:55.258Z,7.63
2019-02-24T02:19:30.755Z,7.73
2019-02-24T02:20:06.710Z,7.50
2019-02-24T02:20:42.377Z,7.27
2019-02-24T02:21:18.832Z,7.30
2019-02-24T02:21:54.453Z,7.20
2019-02-24T02:22:30.210Z,8.37
2019-02-24T02:23:06.213Z,7.13
2019-02-24T02:23:42.133Z,7.27
2019-02-24T02:24:17.791Z,7.60
2019-02-24T02:24:53.174Z,7.83
2019-02-24T02:25:29.340Z,6.77
2019-02-24T02:26:04.987Z,7.77
2019-02-24T02:26:40.408Z,7.57
2019-02-24T02:27:15.805Z,7.80
2019-02-24T02:27:51.215Z,7.93
2019-02-24T02:28:26.857Z,7.47
2019-02-24T02:29:02.487Z,8.37
2019-02-24T02:29:37.910Z,7.93
2019-02-24T02:30:15.163Z,7.23
2019-02-24T02:30:50.824Z,7.70
2019-02-24T02:31:26.545Z,7.80
2019-02-24T02:32:01.951Z,8.00
2019-02-24T02:32:37.361Z,7.63
2019-02-24T02:33:12.825Z,7.63
2019-02-24T02:33:48.201Z,7.07
2019-02-24T02:34:24.132Z,7.43
2019-02-24T02:34:59.520Z,8.27
2019-02-24T02:35:34.902Z,7.10
2019-02-24T02:36:11.305Z,7.50
2019-02-24T02:36:46.951Z,7.27
2019-02-24T02:37:22.659Z,7.97
2019-02-24T02:37:58.344Z,7.70
2019-02-24T02:38:33.722Z,7.53
2019-02-24T02:39:09.414Z,7.20
2019-02-24T02:39:44.804Z,7.90
2019-02-24T02:40:20.481Z,7.70
2019-02-24T02:40:55.872Z,7.57
2019-02-24T02:41:31.300Z,7.03
2019-02-24T02:42:06.794Z,7.40
2019-02-24T02:42:42.201Z,7.40
2019-02-24T02:43:17.642Z,8.00
2019-02-24T02:43:53.029Z,8.40
2019-02-24T02:44:28.400Z,7.40
2019-02-24T02:45:03.819Z,7.70
2019-02-24T02:45:39.550Z,7.07
2019-02-24T02:46:15.211Z,7.57
2019-02-24T02:46:50.619Z,7.70
2019-02-24T02:47:26.023Z,7.57
2019-02-24T02:48:02.170Z,7.50
2019-02-24T02:48:37.623Z,7.13
2019-02-24T02:49:13.275Z,7.43
2019-02-24T02:49:49.252Z,7.33
2019-02-24T02:50:25.200Z,7.53
2019-02-24T02:51:00.607Z,7.70
2019-02-24T02:51:36.295Z,8.10
2019-02-24T02:52:11.699Z,7.90
2019-02-24T02:52:47.472Z,7.80
2019-02-24T02:53:22.881Z,6.90
2019-02-24T02:53:58.558Z,7.77
2019-02-24T02:54:33.970Z,7.90
2019-02-24T02:55:09.763Z,7.80
2019-02-24T02:55:45.164Z,7.47
2019-02-24T02:56:20.606Z,7.30
2019-02-24T02:56:56.017Z,7.80
2019-02-24T02:57:31.440Z,7.53
2019-02-24T02:58:06.918Z,7.17
2019-02-24T02:58:42.523Z,7.43
2019-02-24T02:59:17.930Z,6.90
2019-02-24T02:59:53.939Z,7.97
2019-02-24T03:00:33.638Z,7.43
2019-02-24T03:01:09.063Z,8.03
2019-02-24T03:01:44.729Z,7.80
2019-02-24T03:02:24.493Z,7.83
2019-02-24T03:02:57.217Z,6.90
2019-02-24T03:03:32.942Z,6.97
2019-02-24T03:04:08.764Z,7.37
2019-02-24T03:04:44.457Z,7.70
2019-02-24T03:05:20.136Z,7.33
2019-02-24T03:06:10.933Z,7.80
2019-02-24T03:07:04.039Z,6.77
2019-02-24T03:07:46.407Z,7.10
2019-02-24T03:08:23.477Z,6.73
2019-02-24T03:08:58.869Z,7.43
2019-02-24T03:09:34.280Z,7.67
2019-02-24T03:10:09.806Z,7.57
2019-02-24T03:10:45.193Z,7.43
2019-02-24T03:11:20.575Z,7.30
2019-02-24T03:11:55.966Z,6.90
2019-02-24T03:12:31.371Z,7.13
2019-02-24T03:13:07.105Z,7.30
2019-02-24T03:13:42.520Z,7.03
2019-02-24T03:14:18.180Z,7.13
2019-02-24T03:14:53.607Z,7.00
2019-02-24T03:15:29.572Z,7.50
2019-02-24T03:16:05.021Z,6.93
2019-02-24T03:16:40.448Z,7.17
2019-02-24T03:17:15.873Z,7.77
2019-02-24T03:17:51.853Z,6.67
2019-02-24T03:18:27.298Z,7.57
2019-02-24T03:19:02.940Z,7.80
2019-02-24T03:19:38.412Z,7.97
2019-02-24T03:20:14.106Z,7.50
2019-02-24T03:20:49.771Z,7.13
2019-02-24T03:21:25.171Z,7.37
2019-02-24T03:22:00.605Z,7.13
2019-02-24T03:22:36.084Z,7.47
2019-02-24T03:23:11.849Z,6.63
2019-02-24T03:23:47.541Z,6.77
2019-02-24T03:24:22.937Z,7.03
2019-02-24T03:24:59.455Z,7.50
2019-02-24T03:25:35.232Z,6.70
2019-02-24T03:26:10.825Z,7.03
2019-02-24T03:26:46.238Z,7.30
2019-02-24T03:27:21.616Z,6.60
2019-02-24T03:27:57.108Z,6.97
2019-02-24T03:28:32.525Z,6.43
2019-02-24T03:29:08.268Z,7.57
2019-02-24T03:29:44.211Z,7.00
2019-02-24T03:30:19.625Z,7.00
2019-02-24T03:30:55.010Z,6.70
2019-02-24T03:31:30.697Z,7.70
2019-02-24T03:32:06.135Z,7.53
2019-02-24T03:32:41.584Z,6.87
2019-02-24T03:33:16.986Z,6.90
2019-02-24T03:33:52.689Z,6.20
2019-02-24T03:34:28.333Z,6.70
2019-02-24T03:35:04.377Z,6.93
2019-02-24T03:35:39.825Z,7.87
2019-02-24T03:36:15.222Z,6.70
2019-02-24T03:36:50.619Z,7.47
2019-02-24T03:37:26.285Z,7.60
2019-02-24T03:38:01.949Z,7.50
2019-02-24T03:38:38.422Z,6.57
2019-02-24T03:39:14.128Z,7.53
2019-02-24T03:39:49.528Z,7.30
2019-02-24T03:40:24.955Z,7.40
2019-02-24T03:41:00.669Z,6.93
2019-02-24T03:41:36.532Z,7.67
2019-02-24T03:42:12.448Z,7.37
2019-02-24T03:42:47.982Z,7.23
2019-02-24T03:43:23.351Z,6.80
2019-02-24T03:43:59.018Z,7.43
2019-02-24T03:44:34.704Z,7.80
2019-02-24T03:45:10.181Z,7.63
2019-02-24T03:45:45.598Z,6.87
2019-02-24T03:46:21.006Z,7.23
2019-02-24T03:46:56.410Z,6.83
2019-02-24T03:47:32.161Z,7.17
2019-02-24T03:48:07.715Z,6.93
2019-02-24T03:48:43.737Z,7.17
2019-02-24T03:49:19.667Z,6.57
2019-02-24T03:49:55.068Z,7.77
2019-02-24T03:50:30.725Z,7.33
2019-02-24T03:51:06.451Z,6.70
2019-02-24T03:51:41.984Z,7.40
2019-02-24T03:52:17.480Z,7.00
2019-02-24T03:52:52.971Z,7.20
2019-02-24T03:53:28.384Z,7.47
2019-02-24T03:54:04.078Z,6.90
2019-02-24T03:54:40.148Z,7.10
2019-02-24T03:55:15.938Z,7.37
2019-02-24T03:55:51.357Z,6.80
2019-02-24T03:56:27.073Z,7.00
2019-02-24T03:57:02.546Z,7.10
2019-02-24T03:57:37.961Z,7.30
2019-02-24T03:58:13.906Z,6.80
2019-02-24T03:58:49.357Z,6.77
2019-02-24T03:59:25.038Z,7.27
2019-02-24T04:00:03.508Z,7.70
2019-02-24T04:00:39.027Z,6.77
2019-02-24T04:01:14.454Z,6.93
2019-02-24T04:01:49.848Z,7.10
2019-02-24T04:02:25.471Z,6.63
2019-02-24T04:03:01.195Z,7.37
2019-02-24T04:03:37.437Z,7.90
2019-02-24T04:04:13.156Z,7.27
2019-02-24T04:04:48.792Z,7.20
2019-02-24T04:05:24.208Z,7.53
2019-02-24T04:05:59.685Z,7.10
2019-02-24T04:06:35.432Z,6.90
2019-02-24T04:07:10.855Z,6.90
2019-02-24T04:07:46.265Z,7.67
2019-02-24T04:08:21.673Z,7.03
2019-02-24T04:08:57.380Z,6.67
2019-02-24T04:09:33.184Z,7.27
2019-02-24T04:10:08.660Z,7.43
2019-02-24T04:10:44.064Z,6.67
2019-02-24T04:11:20.024Z,6.93
2019-02-24T04:11:55.670Z,6.50
2019-02-24T04:12:31.365Z,7.27
2019-02-24T04:13:07.100Z,6.50
2019-02-24T04:13:42.519Z,7.10
2019-02-24T04:14:18.276Z,6.73
2019-02-24T04:14:53.714Z,6.77
2019-02-24T04:15:29.103Z,6.90
2019-02-24T04:16:04.785Z,7.87
2019-02-24T04:16:40.281Z,7.00
2019-02-24T04:17:15.665Z,7.50
2019-02-24T04:17:51.159Z,6.97
2019-02-24T04:18:26.869Z,7.47
2019-02-24T04:19:02.383Z,7.67
2019-02-24T04:19:38.167Z,6.60
2019-02-24T04:20:13.954Z,6.70
2019-02-24T04:20:49.345Z,6.37
2019-02-24T04:21:25.006Z,6.90
2019-02-24T04:22:00.436Z,6.83
2019-02-24T04:22:35.856Z,7.20
2019-02-24T04:23:11.291Z,6.97
2019-02-24T04:23:47.264Z,7.57
2019-02-24T04:24:22.944Z,6.70
2019-02-24T04:24:58.577Z,7.27
2019-02-24T04:25:34.006Z,7.30
2019-02-24T04:26:09.761Z,7.57
2019-02-24T04:26:45.404Z,7.40
2019-02-24T04:27:20.788Z,6.50
2019-02-24T04:27:56.194Z,7.40
2019-02-24T04:28:31.847Z,7.33
2019-02-24T04:29:07.887Z,7.03
2019-02-24T04:29:43.424Z,7.27
2019-02-24T04:30:18.810Z,7.20
2019-02-24T04:30:54.459Z,7.97
2019-02-24T04:31:29.834Z,7.00
2019-02-24T04:32:07.443Z,6.90
2019-02-24T04:32:43.101Z,8.40
2019-02-24T04:33:18.505Z,7.00
2019-02-24T04:33:53.981Z,6.53
2019-02-24T04:34:29.382Z,7.20
2019-02-24T04:35:04.829Z,7.47
2019-02-24T04:35:40.285Z,7.13
2019-02-24T04:36:15.925Z,7.23
2019-02-24T04:36:51.330Z,6.80
2019-02-24T04:37:27.018Z,7.30
2019-02-24T04:38:02.397Z,7.87
2019-02-24T04:38:38.205Z,7.92
2019-02-24T04:39:13.626Z,7.27
2019-02-24T04:39:49.343Z,7.10
2019-02-24T04:40:24.751Z,7.47
2019-02-24T04:41:00.141Z,7.53
2019-02-24T04:41:35.875Z,7.50
2019-02-24T04:42:11.568Z,7.00
2019-02-24T04:42:46.967Z,7.43
2019-02-24T04:43:22.619Z,7.80
2019-02-24T04:43:58.004Z,6.97
2019-02-24T04:44:33.653Z,7.33
2019-02-24T04:45:09.350Z,7.20
2019-02-24T04:45:44.836Z,6.77
2019-02-24T04:46:20.225Z,6.90
2019-02-24T04:46:55.612Z,7.23
2019-02-24T04:47:31.012Z,7.77
2019-02-24T04:48:06.815Z,7.70
2019-02-24T04:48:42.335Z,7.40
2019-02-24T04:49:18.487Z,7.40
2019-02-24T04:49:54.138Z,7.90
2019-02-24T04:50:29.550Z,7.30
2019-02-24T04:51:05.284Z,7.70
2019-02-24T04:51:41.006Z,6.53
2019-02-24T04:52:16.645Z,7.63
2019-02-24T04:52:52.615Z,6.87
2019-02-24T04:53:28.303Z,7.83
2019-02-24T04:54:03.980Z,7.43
2019-02-24T04:54:39.737Z,6.93
2019-02-24T04:55:15.400Z,7.20
2019-02-24T04:55:50.794Z,6.73
2019-02-24T04:56:26.200Z,7.43
2019-02-24T04:57:01.607Z,7.07
2019-02-24T04:57:37.377Z,8.30
2019-02-24T04:58:12.802Z,6.77
2019-02-24T04:58:48.454Z,7.07
2019-02-24T04:59:23.861Z,7.33
2019-02-24T05:00:00.724Z,7.30
2019-02-24T05:00:36.170Z,7.10
2019-02-24T05:01:11.892Z,7.30
2019-02-24T05:01:47.575Z,7.50
2019-02-24T05:02:23.002Z,7.33
2019-02-24T05:02:58.428Z,6.83
2019-02-24T05:03:33.816Z,7.03
2019-02-24T05:04:09.290Z,6.80
2019-02-24T05:04:44.968Z,7.03
2019-02-24T05:05:20.446Z,6.90
2019-02-24T05:05:56.092Z,7.10
2019-02-24T05:06:31.752Z,6.37
2019-02-24T05:07:07.460Z,7.17
2019-02-24T05:07:42.981Z,7.37
2019-02-24T05:08:18.379Z,7.00
2019-02-24T05:08:53.752Z,6.80
2019-02-24T05:09:29.246Z,6.97
2019-02-24T05:10:05.286Z,7.20
2019-02-24T05:10:40.668Z,7.13
2019-02-24T05:11:16.663Z,6.70
2019-02-24T05:11:52.319Z,7.17
2019-02-24T05:12:27.996Z,7.50
2019-02-24T05:13:03.404Z,7.20
2019-02-24T05:13:39.286Z,7.30
2019-02-24T05:14:15.216Z,6.40
2019-02-24T05:14:51.048Z,7.07
2019-02-24T05:15:26.458Z,7.17
2019-02-24T05:16:02.127Z,7.23
2019-02-24T05:16:37.600Z,6.93
2019-02-24T05:17:13.274Z,7.53
2019-02-24T05:17:48.677Z,7.43
2019-02-24T05:18:24.492Z,7.30
2019-02-24T05:18:59.901Z,6.80
2019-02-24T05:19:35.702Z,7.27
2019-02-24T05:20:11.125Z,7.70
2019-02-24T05:20:46.810Z,8.07
2019-02-24T05:21:22.212Z,7.13
2019-02-24T05:21:58.213Z,7.53
2019-02-24T05:22:33.609Z,7.00
2019-02-24T05:23:09.102Z,7.13
2019-02-24T05:23:44.648Z,7.13
2019-02-24T05:24:20.335Z,7.10
2019-02-24T05:24:56.033Z,7.07
2019-02-24T05:25:31.428Z,7.60
2019-02-24T05:26:07.172Z,7.67
2019-02-24T05:26:42.609Z,7.00
2019-02-24T05:27:18.033Z,7.93
2019-02-24T05:27:53.723Z,7.13
2019-02-24T05:28:29.348Z,7.53
2019-02-24T05:29:05.116Z,7.17
2019-02-24T05:29:45.785Z,7.47
2019-02-24T05:30:18.000Z,7.53
2019-02-24T05:30:53.660Z,7.63
2019-02-24T05:31:29.042Z,7.70
2019-02-24T05:32:04.459Z,7.33
2019-02-24T05:32:39.961Z,7.93
2019-02-24T05:33:15.744Z,6.80
2019-02-24T05:33:51.558Z,7.13
2019-02-24T05:34:27.086Z,7.30
2019-02-24T05:35:02.803Z,7.13
2019-02-24T05:35:38.305Z,7.07
2019-02-24T05:36:13.849Z,7.83
2019-02-24T05:36:49.576Z,7.50
2019-02-24T05:37:24.965Z,6.53
2019-02-24T05:38:00.657Z,7.30
2019-02-24T05:38:36.362Z,7.50
2019-02-24T05:39:11.792Z,7.53
2019-02-24T05:39:47.477Z,7.40
2019-02-24T05:40:23.177Z,7.07
2019-02-24T05:40:58.630Z,7.13
2019-02-24T05:41:34.152Z,6.90
2019-02-24T05:42:09.617Z,7.20
2019-02-24T05:42:45.040Z,7.37
2019-02-24T05:43:20.472Z,6.67
2019-02-24T05:43:55.867Z,7.57
2019-02-24T05:44:31.508Z,7.23
2019-02-24T05:45:07.295Z,7.53
2019-02-24T05:45:43.024Z,6.93
2019-02-24T05:46:19.030Z,8.63
2019-02-24T05:46:54.428Z,7.00
2019-02-24T05:47:30.109Z,7.10
2019-02-24T05:48:05.848Z,6.80
2019-02-24T05:48:41.713Z,8.07
2019-02-24T05:49:17.090Z,6.73
2019-02-24T05:49:53.106Z,6.53
2019-02-24T05:50:28.545Z,7.43
2019-02-24T05:51:03.964Z,6.87
2019-02-24T05:51:39.704Z,7.03
2019-02-24T05:52:15.165Z,6.90
2019-02-24T05:52:50.839Z,7.47
2019-02-24T05:53:26.271Z,7.30
2019-02-24T05:54:01.676Z,7.27
2019-02-24T05:54:37.110Z,6.30
2019-02-24T05:55:12.882Z,6.97
2019-02-24T05:55:48.335Z,6.80
2019-02-24T05:56:23.709Z,7.53
2019-02-24T05:56:59.370Z,6.77
2019-02-24T05:57:35.104Z,6.80
2019-02-24T05:58:11.258Z,7.27
2019-02-24T05:58:47.227Z,7.63
2019-02-24T05:59:22.602Z,7.30
2019-02-24T05:59:59.501Z,6.93
2019-02-24T06:00:34.945Z,7.53
2019-02-24T06:01:10.374Z,7.87
2019-02-24T06:01:45.759Z,7.37
2019-02-24T06:02:21.173Z,7.17
2019-02-24T06:02:57.087Z,7.30
2019-02-24T06:03:32.590Z,7.00
2019-02-24T06:04:07.997Z,8.03
2019-02-24T06:04:43.702Z,7.30
2019-02-24T06:05:19.378Z,7.50
2019-02-24T06:05:54.844Z,7.23
2019-02-24T06:06:30.874Z,6.73
2019-02-24T06:07:06.819Z,7.33
2019-02-24T06:07:42.246Z,7.37
2019-02-24T06:08:17.999Z,7.80
2019-02-24T06:08:53.382Z,6.70
2019-02-24T06:09:29.045Z,7.73
2019-02-24T06:10:05.027Z,7.00
2019-02-24T06:10:40.722Z,7.10
2019-02-24T06:11:16.379Z,7.33
2019-02-24T06:11:52.043Z,7.23
2019-02-24T06:12:27.448Z,7.83
2019-02-24T06:13:03.128Z,7.40
2019-02-24T06:13:38.866Z,7.57
2019-02-24T06:14:14.287Z,6.90
2019-02-24T06:14:49.763Z,7.47
2019-02-24T06:15:25.181Z,7.50
2019-02-24T06:16:00.907Z,6.73
2019-02-24T06:16:36.388Z,7.53
2019-02-24T06:17:12.392Z,6.67
2019-02-24T06:17:47.806Z,7.47
2019-02-24T06:18:23.211Z,6.97
2019-02-24T06:18:58.874Z,6.87
2019-02-24T06:19:34.285Z,7.73
2019-02-24T06:20:09.832Z,7.50
2019-02-24T06:20:45.227Z,6.67
2019-02-24T06:21:20.619Z,7.70
2019-02-24T06:21:56.079Z,7.50
2019-02-24T06:22:31.489Z,7.67
2019-02-24T06:23:07.169Z,7.57
2019-02-24T06:23:42.599Z,6.27
2019-02-24T06:24:18.291Z,7.50
2019-02-24T06:24:53.705Z,7.03
2019-02-24T06:25:29.119Z,6.53
2019-02-24T06:26:04.520Z,6.70
2019-02-24T06:26:40.486Z,6.90
2019-02-24T06:27:16.148Z,7.27
2019-02-24T06:27:52.125Z,6.37
2019-02-24T06:28:27.559Z,6.87
2019-02-24T06:29:02.958Z,6.77
2019-02-24T06:29:38.646Z,6.47
2019-02-24T06:30:14.050Z,6.77
2019-02-24T06:30:49.505Z,6.47
2019-02-24T06:31:24.903Z,7.13
2019-02-24T06:32:00.330Z,6.57
2019-02-24T06:32:35.734Z,6.13
2019-02-24T06:33:11.498Z,6.10
2019-02-24T06:33:47.192Z,6.43
2019-02-24T06:34:22.822Z,5.93
2019-02-24T06:34:58.297Z,5.90
2019-02-24T06:35:33.684Z,6.30
2019-02-24T06:36:09.182Z,6.20
2019-02-24T06:36:44.584Z,6.23
2019-02-24T06:37:20.047Z,5.87
2019-02-24T06:37:55.428Z,5.73
2019-02-24T06:38:30.854Z,5.73
2019-02-24T06:39:08.128Z,6.43
2019-02-24T06:39:43.505Z,6.17
2019-02-24T06:40:18.904Z,5.97
2019-02-24T06:40:54.295Z,6.07
2019-02-24T06:41:29.700Z,6.53
2019-02-24T06:42:05.369Z,6.77
2019-02-24T06:42:40.763Z,6.60
2019-02-24T06:43:16.448Z,6.13
2019-02-24T06:43:51.848Z,6.30
2019-02-24T06:44:27.509Z,5.90
2019-02-24T06:45:03.154Z,5.90
2019-02-24T06:45:38.548Z,6.23
2019-02-24T06:46:14.000Z,5.70
2019-02-24T06:46:49.410Z,6.23
2019-02-24T06:47:25.105Z,5.87
2019-02-24T06:48:00.461Z,6.07
2019-02-24T06:48:35.963Z,6.50
2019-02-24T06:49:11.424Z,5.97
2019-02-24T06:49:46.822Z,5.43
2019-02-24T06:50:22.464Z,5.97
2019-02-24T06:51:06.631Z,5.70
2019-02-24T06:51:42.346Z,6.00
2019-02-24T06:52:19.384Z,6.33
2019-02-24T06:52:55.013Z,6.13
2019-02-24T06:53:30.418Z,5.97
2019-02-24T06:54:05.840Z,5.77
2019-02-24T06:54:41.665Z,6.03
2019-02-24T06:55:17.055Z,6.07
2019-02-24T06:55:52.503Z,5.80
2019-02-24T06:56:27.910Z,5.60
2019-02-24T06:57:03.656Z,6.03
2019-02-24T06:57:39.046Z,5.97
2019-02-24T06:58:14.774Z,5.90
2019-02-24T06:58:50.406Z,6.03
2019-02-24T06:59:26.083Z,5.60
2019-02-24T07:00:01.487Z,6.37
2019-02-24T07:00:37.182Z,6.23
2019-02-24T07:01:12.590Z,6.33
2019-02-24T07:01:48.095Z,6.10
2019-02-24T07:02:23.868Z,6.53
2019-02-24T07:02:59.238Z,6.17
2019-02-24T07:03:34.788Z,6.20
2019-02-24T07:04:10.483Z,5.70
2019-02-24T07:04:46.225Z,6.03
2019-02-24T07:05:21.607Z,5.77
2019-02-24T07:05:57.328Z,5.67
2019-02-24T07:06:32.981Z,6.33
2019-02-24T07:07:08.429Z,6.00
2019-02-24T07:07:43.978Z,5.90
2019-02-24T07:08:19.392Z,5.33
2019-02-24T07:08:55.116Z,6.03
2019-02-24T07:09:30.761Z,6.30
2019-02-24T07:10:06.915Z,6.27
2019-02-24T07:10:42.719Z,5.80
2019-02-24T07:11:18.126Z,6.23
2019-02-24T07:11:53.852Z,6.10
2019-02-24T07:12:29.258Z,5.63
2019-02-24T07:13:04.913Z,5.83
2019-02-24T07:13:40.919Z,6.23
2019-02-24T07:14:16.606Z,5.40
2019-02-24T07:14:51.987Z,5.80
2019-02-24T07:15:27.646Z,6.20
2019-02-24T07:16:03.042Z,6.00
2019-02-24T07:16:39.040Z,5.63
2019-02-24T07:17:14.852Z,6.03
2019-02-24T07:17:50.533Z,5.87
2019-02-24T07:18:26.185Z,6.50
2019-02-24T07:19:01.572Z,6.40
2019-02-24T07:19:37.138Z,6.00
2019-02-24T07:20:12.844Z,6.30
2019-02-24T07:20:48.547Z,5.93
2019-02-24T07:21:24.172Z,5.73
2019-02-24T07:21:59.616Z,6.07
2019-02-24T07:22:35.014Z,6.17
2019-02-24T07:23:10.483Z,5.77
2019-02-24T07:23:45.906Z,5.83
2019-02-24T07:24:21.660Z,5.77
2019-02-24T07:24:57.043Z,6.20
2019-02-24T07:25:32.430Z,5.70
2019-02-24T07:26:08.002Z,5.90
2019-02-24T07:26:43.664Z,5.73
2019-02-24T07:27:19.100Z,5.20
2019-02-24T07:27:55.990Z,5.53
2019-02-24T07:28:31.692Z,6.40
2019-02-24T07:29:07.349Z,5.60
2019-02-24T07:29:42.741Z,5.57
2019-02-24T07:30:23.551Z,5.80
2019-02-24T07:30:55.230Z,5.83
2019-02-24T07:31:30.627Z,5.53
2019-02-24T07:32:06.341Z,5.93
2019-02-24T07:32:41.746Z,6.13
2019-02-24T07:33:17.481Z,5.83
2019-02-24T07:33:52.863Z,6.37
2019-02-24T07:34:28.326Z,6.83
2019-02-24T07:35:03.745Z,6.10
2019-02-24T07:35:39.396Z,6.00
2019-02-24T07:36:14.832Z,6.30
2019-02-24T07:36:50.230Z,6.17
2019-02-24T07:37:25.889Z,6.13
2019-02-24T07:38:01.282Z,5.73
2019-02-24T07:38:36.927Z,5.77
2019-02-24T07:39:12.598Z,6.43
2019-02-24T07:39:48.399Z,6.37
2019-02-24T07:40:24.061Z,6.77
2019-02-24T07:40:59.434Z,5.90
2019-02-24T07:41:34.848Z,6.47
2019-02-24T07:42:10.322Z,6.17
2019-02-24T07:42:45.759Z,6.27
2019-02-24T07:43:21.189Z,6.17
2019-02-24T07:43:56.582Z,5.93
2019-02-24T07:44:32.232Z,6.80
2019-02-24T07:45:07.947Z,6.57
2019-02-24T07:45:43.670Z,6.17
2019-02-24T07:46:19.056Z,6.60
2019-02-24T07:46:54.467Z,6.50
2019-02-24T07:47:30.168Z,6.13
2019-02-24T07:48:05.619Z,6.90
2019-02-24T07:48:41.117Z,6.73
2019-02-24T07:49:16.534Z,6.43
2019-02-24T07:49:51.920Z,6.47
2019-02-24T07:50:27.320Z,7.50
2019-02-24T07:51:02.975Z,6.53
2019-02-24T07:51:38.394Z,6.30
2019-02-24T07:52:14.383Z,6.70
2019-02-24T07:52:49.804Z,6.77
2019-02-24T07:53:25.202Z,6.90
2019-02-24T07:54:00.898Z,6.73
2019-02-24T07:54:36.325Z,6.97